Search for airport 
image banner adimage banner adimage banner ad
image banner ad

KJAQ - Westover Field Amador County

Located in Jackson, United States

ICAO - JAQ, IATA -

Data provided by Airmate  

General information

Coordinates: N38°22'36" W120°47'38"
Elevation is 1693 feet MSL.
Magnetic variation is 16° East
View others Airports in California

Operational data

Special qualification required
Current time UTC:
Current local time:
Weather
METAR: KJAQ 211255Z AUTO 27003KT 10SM CLR 22/M02 A2990 RMK AO1 T02171018
View NOTAMs / SUP AIP / TFR affecting this airport [VIEW]
Communications frequencies: [VIEW]

Runways:

RWY identifierQFULength (ft)Width (ft)SurfaceLDA (ft)
0122°340160ASPH
19202°340160ASPH

Airport contact information

Address: Jackson United States

Satellite view of KJAQ